createdAt,value
2022-10-17T00:00:15.487Z,33.90
2022-10-17T00:02:20.188Z,35.70
2022-10-17T00:04:24.871Z,34.60
2022-10-17T00:06:29.501Z,35.00
2022-10-17T00:08:34.599Z,33.50
2022-10-17T00:10:39.602Z,34.00
2022-10-17T00:12:44.316Z,33.00
2022-10-17T00:14:52.307Z,34.40
2022-10-17T00:16:56.967Z,32.80
2022-10-17T00:19:01.971Z,34.00
2022-10-17T00:21:14.599Z,32.30
2022-10-17T00:23:19.294Z,31.70
2022-10-17T00:25:24.065Z,33.10
2022-10-17T00:27:29.348Z,33.70
2022-10-17T00:29:34.318Z,32.60
2022-10-17T00:31:39.040Z,34.30
2022-10-17T00:33:43.650Z,36.30
2022-10-17T00:35:48.369Z,34.90
2022-10-17T00:37:53.113Z,35.60
2022-10-17T00:39:57.835Z,34.80
2022-10-17T00:42:02.511Z,40.30
2022-10-17T00:44:23.087Z,34.60
2022-10-17T00:46:29.923Z,34.10
2022-10-17T00:48:34.670Z,35.40
2022-10-17T00:50:42.917Z,35.90
2022-10-17T00:52:48.926Z,35.70
2022-10-17T00:54:57.932Z,36.50
2022-10-17T00:57:02.817Z,37.00
2022-10-17T00:59:09.230Z,34.90
2022-10-17T01:01:18.756Z,35.00
2022-10-17T01:03:23.588Z,34.20
2022-10-17T01:05:29.086Z,34.50
2022-10-17T01:07:37.131Z,33.50
2022-10-17T01:09:44.437Z,36.50
2022-10-17T01:11:59.554Z,35.00
2022-10-17T01:14:17.208Z,33.70
2022-10-17T01:16:33.229Z,35.10
2022-10-17T01:18:51.628Z,33.30
2022-10-17T01:21:20.786Z,36.00
2022-10-17T01:24:01.929Z,34.90
2022-10-17T01:26:19.334Z,33.60
2022-10-17T01:28:46.725Z,36.10
2022-10-17T01:31:10.241Z,34.10
2022-10-17T01:33:23.284Z,35.30
2022-10-17T01:35:32.480Z,33.80
2022-10-17T01:37:45.857Z,33.40
2022-10-17T01:39:53.454Z,35.40
2022-10-17T01:42:10.415Z,33.60
2022-10-17T01:44:19.603Z,35.40
2022-10-17T01:46:28.606Z,35.10
2022-10-17T01:48:37.931Z,31.20
2022-10-17T01:50:48.814Z,34.90
2022-10-17T01:52:56.995Z,35.10
2022-10-17T01:55:07.596Z,35.10
2022-10-17T01:57:20.348Z,33.40
2022-10-17T01:59:29.269Z,33.10
2022-10-17T02:01:36.901Z,32.70
2022-10-17T02:03:45.030Z,32.80
2022-10-17T02:05:49.920Z,30.60
2022-10-17T02:07:54.673Z,34.70
2022-10-17T02:09:59.689Z,32.60
2022-10-17T02:12:37.866Z,34.30
2022-10-17T02:14:57.004Z,32.30
2022-10-17T02:17:08.536Z,34.10
2022-10-17T02:19:46.392Z,32.60
2022-10-17T02:22:01.432Z,31.80
2022-10-17T02:24:15.160Z,32.00
2022-10-17T02:26:25.982Z,44.20
2022-10-17T02:28:38.373Z,34.90
2022-10-17T02:30:47.190Z,32.20
2022-10-17T02:32:59.073Z,31.30
2022-10-17T02:35:07.511Z,34.50
2022-10-17T02:37:15.728Z,33.50
2022-10-17T02:39:22.243Z,36.10
2022-10-17T02:43:39.286Z,33.90
2022-10-17T02:45:44.140Z,31.60
2022-10-17T02:47:56.026Z,32.70
2022-10-17T02:50:00.766Z,33.80
2022-10-17T02:52:10.693Z,31.50
2022-10-17T02:54:20.841Z,31.90
2022-10-17T02:56:28.269Z,30.90
2022-10-17T02:58:36.389Z,32.40
2022-10-17T03:00:42.655Z,31.30
2022-10-17T03:02:49.226Z,32.80
2022-10-17T03:04:53.936Z,31.90
2022-10-17T03:06:58.649Z,34.40
2022-10-17T03:09:03.375Z,33.50
2022-10-17T03:11:08.340Z,33.70
2022-10-17T03:13:13.047Z,31.60
2022-10-17T03:15:18.088Z,32.50
2022-10-17T03:17:22.820Z,32.30
2022-10-17T03:19:27.564Z,31.50
2022-10-17T03:21:32.649Z,33.10
2022-10-17T03:23:37.350Z,33.60
2022-10-17T03:25:42.435Z,32.50
2022-10-17T03:27:47.171Z,33.90
2022-10-17T03:29:51.847Z,32.20
2022-10-17T03:31:56.583Z,32.60
2022-10-17T03:34:01.645Z,32.10
2022-10-17T03:36:11.026Z,32.10
2022-10-17T03:38:15.906Z,32.10
2022-10-17T03:40:22.708Z,32.30
2022-10-17T03:42:27.460Z,33.80
2022-10-17T03:44:32.110Z,33.60
2022-10-17T03:46:37.020Z,32.20
2022-10-17T03:48:42.072Z,32.60
2022-10-17T03:50:46.767Z,32.50
2022-10-17T03:52:51.669Z,33.00
2022-10-17T03:54:56.752Z,32.10
2022-10-17T03:57:01.386Z,32.40
2022-10-17T03:59:06.232Z,32.90
2022-10-17T04:01:15.469Z,31.20
2022-10-17T04:03:20.158Z,31.30
2022-10-17T04:05:25.170Z,30.50
2022-10-17T04:07:30.946Z,33.50
2022-10-17T04:09:35.861Z,31.90
2022-10-17T04:11:46.037Z,32.40
2022-10-17T04:13:54.901Z,32.70
2022-10-17T04:16:01.362Z,32.10
2022-10-17T04:18:06.859Z,31.60
2022-10-17T04:20:12.717Z,32.80
2022-10-17T04:22:17.548Z,33.50
2022-10-17T04:24:22.261Z,32.10
2022-10-17T04:26:39.741Z,32.60
2022-10-17T04:28:44.481Z,31.60
2022-10-17T04:30:55.411Z,33.40
2022-10-17T04:33:00.449Z,33.60
2022-10-17T04:35:07.753Z,33.50
2022-10-17T04:37:12.418Z,31.10
2022-10-17T04:39:17.499Z,34.00
2022-10-17T04:41:22.818Z,30.50
2022-10-17T04:43:27.527Z,29.80
2022-10-17T04:45:32.305Z,32.40
2022-10-17T04:47:39.344Z,32.60
2022-10-17T04:49:44.502Z,32.40
2022-10-17T04:51:49.381Z,30.70
2022-10-17T04:54:00.723Z,32.30
2022-10-17T04:56:10.112Z,30.60
2022-10-17T04:58:14.955Z,32.30
2022-10-17T05:00:20.260Z,30.30
2022-10-17T05:02:36.825Z,32.00
2022-10-17T05:04:41.644Z,32.70
2022-10-17T05:06:46.671Z,29.20
2022-10-17T05:09:11.621Z,30.90
2022-10-17T05:11:20.135Z,29.90
2022-10-17T05:13:24.984Z,32.70
2022-10-17T05:15:29.718Z,31.20
2022-10-17T05:17:37.332Z,33.60
2022-10-17T05:19:43.334Z,30.70
2022-10-17T05:21:48.092Z,33.20
2022-10-17T05:23:53.232Z,33.20
2022-10-17T05:25:58.300Z,29.20
2022-10-17T05:28:04.924Z,30.00
2022-10-17T05:30:11.461Z,32.40
2022-10-17T05:32:16.712Z,29.50
2022-10-17T05:34:21.632Z,32.20
2022-10-17T05:36:26.516Z,31.00
2022-10-17T05:38:31.682Z,31.30
2022-10-17T05:40:36.480Z,29.30
2022-10-17T05:42:45.476Z,28.80
2022-10-17T05:44:50.592Z,28.20
2022-10-17T05:46:56.465Z,31.50
2022-10-17T05:49:01.175Z,29.00
2022-10-17T05:51:08.008Z,27.30
2022-10-17T05:53:13.188Z,26.70
2022-10-17T05:55:22.611Z,28.00
2022-10-17T05:57:27.862Z,27.20
2022-10-17T05:59:32.716Z,25.20
2022-10-17T06:01:50.737Z,24.70
2022-10-17T06:03:55.600Z,24.00
2022-10-17T06:06:05.353Z,26.30
2022-10-17T06:08:13.193Z,25.00
2022-10-17T06:10:18.518Z,24.40
2022-10-17T06:12:23.431Z,24.20
2022-10-17T06:14:28.153Z,23.10
2022-10-17T06:16:37.504Z,22.90
2022-10-17T06:18:42.308Z,24.50
2022-10-17T06:20:47.206Z,23.10
2022-10-17T06:22:53.949Z,24.90
2022-10-17T06:25:12.012Z,23.50
2022-10-17T06:27:16.649Z,23.60
2022-10-17T06:29:21.398Z,24.30
2022-10-17T06:31:28.821Z,23.90
2022-10-17T06:33:34.524Z,26.00
2022-10-17T06:35:41.542Z,25.30
2022-10-17T06:37:46.799Z,23.10
2022-10-17T06:39:51.520Z,22.10
2022-10-17T06:41:59.389Z,25.40
2022-10-17T06:44:20.282Z,22.60
2022-10-17T06:46:35.869Z,23.80
2022-10-17T06:48:43.190Z,26.60
2022-10-17T06:51:09.086Z,24.10
2022-10-17T06:53:22.902Z,23.40
2022-10-17T06:56:06.122Z,24.90
2022-10-17T06:58:26.491Z,25.70
2022-10-17T07:00:43.182Z,21.80
2022-10-17T07:02:49.789Z,22.30
2022-10-17T07:04:54.830Z,23.90
2022-10-17T07:07:02.035Z,24.50
2022-10-17T07:09:07.088Z,24.10
2022-10-17T07:11:16.024Z,22.00
2022-10-17T07:13:21.221Z,22.40
2022-10-17T07:15:25.966Z,22.50
2022-10-17T07:17:30.861Z,24.00
2022-10-17T07:19:35.899Z,24.60
2022-10-17T07:21:40.981Z,23.30
2022-10-17T07:23:48.072Z,23.80
2022-10-17T07:25:53.492Z,24.50
2022-10-17T07:27:58.441Z,25.30
2022-10-17T07:30:03.838Z,27.00
2022-10-17T07:32:28.792Z,24.80
2022-10-17T07:34:35.059Z,24.50
2022-10-17T07:36:39.848Z,24.70
2022-10-17T07:38:45.209Z,25.20
2022-10-17T07:40:56.298Z,23.30
2022-10-17T07:43:01.922Z,26.00
2022-10-17T07:45:09.604Z,25.90
2022-10-17T07:47:14.887Z,24.60
2022-10-17T07:49:19.689Z,25.90
2022-10-17T07:51:24.396Z,25.80
2022-10-17T07:53:29.028Z,28.60
2022-10-17T07:55:33.646Z,26.50
2022-10-17T07:57:38.357Z,24.90
2022-10-17T07:59:43.019Z,26.60
2022-10-17T08:01:48.129Z,30.60
2022-10-17T08:03:53.211Z,26.90
2022-10-17T08:06:01.257Z,26.40
2022-10-17T08:08:06.314Z,26.10
2022-10-17T08:10:13.840Z,27.00
2022-10-17T08:12:18.978Z,28.20
2022-10-17T08:14:23.666Z,26.10
2022-10-17T08:16:31.340Z,26.60
2022-10-17T08:18:36.360Z,24.80
2022-10-17T08:20:41.059Z,27.00
2022-10-17T08:22:53.091Z,25.40
2022-10-17T08:24:57.776Z,26.90
2022-10-17T08:27:02.634Z,26.00
2022-10-17T08:29:12.305Z,25.80
2022-10-17T08:31:18.797Z,24.40
2022-10-17T08:33:23.500Z,24.60
2022-10-17T08:35:28.328Z,25.30
2022-10-17T08:37:35.969Z,23.80
2022-10-17T08:39:40.861Z,25.00
2022-10-17T08:41:57.149Z,25.30
2022-10-17T08:44:12.997Z,24.20
2022-10-17T08:46:19.684Z,25.30
2022-10-17T08:48:27.197Z,25.60
2022-10-17T08:50:37.620Z,25.10
2022-10-17T08:52:45.085Z,26.10
2022-10-17T08:54:50.953Z,25.40
2022-10-17T08:56:58.565Z,29.00
2022-10-17T08:59:04.753Z,26.60
2022-10-17T09:01:22.563Z,25.30
2022-10-17T09:03:48.254Z,26.40
2022-10-17T09:05:58.019Z,26.70
2022-10-17T09:08:12.254Z,26.00
2022-10-17T09:10:25.820Z,25.60
2022-10-17T09:12:40.593Z,26.80
2022-10-17T09:15:11.546Z,26.30
2022-10-17T09:17:29.601Z,25.30
2022-10-17T09:19:37.752Z,25.90
2022-10-17T09:21:46.646Z,27.20
2022-10-17T09:24:03.781Z,27.70
2022-10-17T09:26:17.272Z,26.70
2022-10-17T09:28:26.224Z,28.00
2022-10-17T09:30:46.397Z,28.80
2022-10-17T09:32:52.399Z,26.80
2022-10-17T09:34:57.382Z,27.40
2022-10-17T09:37:09.586Z,28.80
2022-10-17T09:39:17.613Z,26.90
2022-10-17T09:41:44.206Z,26.50
2022-10-17T09:43:52.157Z,25.60
2022-10-17T09:46:08.515Z,26.30
2022-10-17T09:48:23.600Z,27.70
2022-10-17T09:50:31.171Z,26.80
2022-10-17T09:52:43.419Z,27.00
2022-10-17T09:54:49.955Z,27.80
2022-10-17T09:57:03.758Z,24.30
2022-10-17T09:59:13.804Z,26.00
2022-10-17T10:01:24.004Z,27.00
2022-10-17T10:03:29.327Z,26.90
2022-10-17T10:05:34.145Z,27.60
2022-10-17T10:07:39.696Z,27.60
2022-10-17T10:09:49.035Z,28.00
2022-10-17T10:11:56.777Z,26.00
2022-10-17T10:14:19.586Z,27.30
2022-10-17T10:16:30.896Z,25.20
2022-10-17T10:18:36.468Z,23.60
2022-10-17T10:20:41.411Z,24.10
2022-10-17T10:23:05.478Z,23.20
2022-10-17T10:25:16.158Z,24.10
2022-10-17T10:27:29.266Z,24.10
2022-10-17T10:29:36.632Z,24.70
2022-10-17T10:31:41.634Z,25.00
2022-10-17T10:33:49.540Z,23.20
2022-10-17T10:35:59.268Z,24.80
2022-10-17T10:38:09.510Z,22.50
2022-10-17T10:40:22.641Z,24.80
2022-10-17T10:42:30.983Z,23.40
2022-10-17T10:44:38.167Z,25.90
2022-10-17T10:46:43.059Z,21.90
2022-10-17T10:48:55.314Z,26.00
2022-10-17T10:51:02.940Z,26.20
2022-10-17T10:53:20.414Z,26.80
2022-10-17T10:55:29.780Z,27.30
2022-10-17T10:57:38.007Z,27.60
2022-10-17T10:59:49.476Z,25.00
2022-10-17T11:02:00.245Z,23.70
2022-10-17T11:04:17.926Z,22.70
2022-10-17T11:06:27.398Z,22.80
2022-10-17T11:08:40.477Z,24.50
2022-10-17T11:10:57.272Z,24.70
2022-10-17T11:13:11.021Z,20.90
2022-10-17T11:15:23.844Z,24.40
2022-10-17T11:17:34.624Z,24.00
2022-10-17T11:19:45.129Z,24.10
2022-10-17T11:21:56.322Z,24.50
2022-10-17T11:24:09.090Z,22.30
2022-10-17T11:26:18.581Z,20.80
2022-10-17T11:28:24.918Z,21.30
2022-10-17T11:30:41.550Z,24.40
2022-10-17T11:32:50.730Z,23.60
2022-10-17T11:35:00.334Z,21.60
2022-10-17T11:37:12.601Z,22.50
2022-10-17T11:39:20.497Z,20.50
2022-10-17T11:41:34.658Z,22.10
2022-10-17T11:43:45.531Z,20.60
2022-10-17T11:45:55.783Z,22.50
2022-10-17T11:48:06.594Z,20.90
2022-10-17T11:52:56.297Z,20.10
2022-10-17T11:55:11.603Z,19.80
2022-10-17T11:57:39.522Z,20.90
2022-10-17T11:59:58.661Z,20.60
2022-10-17T12:02:09.820Z,19.70
2022-10-17T12:04:35.372Z,20.80
2022-10-17T12:06:57.235Z,20.20
2022-10-17T12:09:11.990Z,18.00
2022-10-17T12:11:42.091Z,21.20
2022-10-17T12:13:52.992Z,21.50
2022-10-17T12:15:59.006Z,19.80
2022-10-17T12:18:16.443Z,19.00
2022-10-17T12:20:37.729Z,19.80
2022-10-17T12:22:48.650Z,22.20
2022-10-17T12:25:01.913Z,20.40
2022-10-17T12:27:37.020Z,20.60
2022-10-17T12:29:41.839Z,20.10
2022-10-17T12:31:46.614Z,19.60
2022-10-17T12:33:53.997Z,20.10
2022-10-17T12:36:29.056Z,17.60
2022-10-17T12:38:33.736Z,18.30
2022-10-17T12:41:01.429Z,18.30
2022-10-17T12:43:46.796Z,19.30
2022-10-17T12:45:52.937Z,18.50
2022-10-17T12:47:57.674Z,20.00
2022-10-17T12:50:02.658Z,17.80
2022-10-17T12:52:24.975Z,17.20
2022-10-17T12:54:37.828Z,18.60
2022-10-17T12:56:52.209Z,20.70
2022-10-17T12:58:58.369Z,17.60
2022-10-17T13:01:23.295Z,18.40
2022-10-17T13:03:32.002Z,16.30
2022-10-17T13:05:40.199Z,17.60
2022-10-17T13:07:48.492Z,18.70
2022-10-17T13:09:53.293Z,18.80
2022-10-17T13:12:00.990Z,21.30
2022-10-17T13:14:13.258Z,15.80
2022-10-17T13:16:31.562Z,14.90
2022-10-17T13:18:36.226Z,17.00
2022-10-17T13:20:40.976Z,16.90
2022-10-17T13:22:47.363Z,17.70
2022-10-17T13:24:53.603Z,17.70
2022-10-17T13:26:58.773Z,17.60
2022-10-17T13:29:06.968Z,18.20
2022-10-17T13:31:29.639Z,16.70
2022-10-17T13:33:37.572Z,17.30
2022-10-17T13:35:59.538Z,17.20
2022-10-17T13:38:07.017Z,18.60
2022-10-17T13:40:49.165Z,16.50
2022-10-17T13:42:44.311Z,17.60
2022-10-17T13:44:49.252Z,15.90
2022-10-17T13:46:54.376Z,16.80
2022-10-17T13:49:08.501Z,15.50
2022-10-17T13:51:14.483Z,16.50
2022-10-17T13:53:30.458Z,15.10
2022-10-17T13:55:35.091Z,16.20
2022-10-17T13:57:39.866Z,18.30
2022-10-17T13:59:46.544Z,15.70
2022-10-17T14:01:51.798Z,15.00
2022-10-17T14:04:08.348Z,15.30
2022-10-17T14:06:17.887Z,17.00
2022-10-17T14:08:23.818Z,14.90
2022-10-17T14:10:33.053Z,16.90
2022-10-17T14:12:42.639Z,16.10
2022-10-17T14:15:09.733Z,15.40
2022-10-17T14:17:25.122Z,17.30
2022-10-17T14:19:32.755Z,16.00
2022-10-17T14:21:44.224Z,17.50
2022-10-17T14:23:50.189Z,15.00
2022-10-17T14:26:06.896Z,17.00
2022-10-17T14:28:16.038Z,17.40
2022-10-17T14:30:55.698Z,16.00
2022-10-17T14:33:04.016Z,17.60
2022-10-17T14:35:37.367Z,15.70
2022-10-17T14:37:45.375Z,15.70
2022-10-17T14:39:52.086Z,17.60
2022-10-17T14:41:59.690Z,15.20
2022-10-17T14:44:16.827Z,14.80
2022-10-17T14:46:21.772Z,15.60
2022-10-17T14:48:28.127Z,14.90
2022-10-17T14:50:34.044Z,16.10
2022-10-17T14:52:39.100Z,15.90
2022-10-17T14:54:46.097Z,16.20
2022-10-17T14:56:53.590Z,16.30
2022-10-17T14:58:58.181Z,15.90
2022-10-17T15:01:03.454Z,16.50
2022-10-17T15:03:08.202Z,16.00
2022-10-17T15:05:13.725Z,16.80
2022-10-17T15:07:19.481Z,17.10
2022-10-17T15:09:24.402Z,16.40
2022-10-17T15:11:29.781Z,16.30
2022-10-17T15:13:40.073Z,14.80
2022-10-17T15:15:47.846Z,16.00
2022-10-17T15:17:52.471Z,15.50
2022-10-17T15:19:57.788Z,18.30
2022-10-17T15:22:02.700Z,17.00
2022-10-17T15:24:07.737Z,17.20
2022-10-17T15:26:19.002Z,15.10
2022-10-17T15:28:23.650Z,15.10
2022-10-17T15:30:32.242Z,17.70
2022-10-17T15:32:36.950Z,16.20
2022-10-17T15:34:42.220Z,15.80
2022-10-17T15:36:51.350Z,14.50
2022-10-17T15:38:58.471Z,16.40
2022-10-17T15:41:03.173Z,16.80
2022-10-17T15:43:09.199Z,15.20
2022-10-17T15:45:15.489Z,15.40
2022-10-17T15:47:27.330Z,12.30
2022-10-17T15:49:32.207Z,14.30
2022-10-17T15:51:36.997Z,12.80
2022-10-17T15:53:41.948Z,14.10
2022-10-17T15:55:47.177Z,15.60
2022-10-17T15:57:51.879Z,13.40
2022-10-17T15:59:57.823Z,13.70
2022-10-17T16:02:02.927Z,14.20
2022-10-17T16:04:09.232Z,12.80
2022-10-17T16:06:14.306Z,12.40
2022-10-17T16:08:19.183Z,12.80
2022-10-17T16:10:24.910Z,14.10
2022-10-17T16:12:30.378Z,12.00
2022-10-17T16:14:35.096Z,13.10
2022-10-17T16:16:41.087Z,10.70
2022-10-17T16:18:45.793Z,11.90
2022-10-17T16:20:50.524Z,12.90
2022-10-17T16:22:55.715Z,11.90
2022-10-17T16:25:00.425Z,13.40
2022-10-17T16:27:05.148Z,11.20
2022-10-17T16:29:10.382Z,12.00
2022-10-17T16:31:22.346Z,12.60
2022-10-17T16:33:27.383Z,11.80
2022-10-17T16:35:36.544Z,13.10
2022-10-17T16:37:45.007Z,12.90
2022-10-17T16:39:49.776Z,12.90
2022-10-17T16:41:57.717Z,10.30
2022-10-17T16:44:05.498Z,13.50
2022-10-17T16:46:10.197Z,11.80
2022-10-17T16:48:15.983Z,10.70
2022-10-17T16:50:20.763Z,12.50
2022-10-17T16:52:25.795Z,12.10
2022-10-17T16:54:30.523Z,12.70
2022-10-17T16:56:35.410Z,12.50
2022-10-17T16:58:41.275Z,14.00
2022-10-17T17:00:48.487Z,10.50
2022-10-17T17:02:53.679Z,12.20
2022-10-17T17:04:58.532Z,11.60
2022-10-17T17:07:04.349Z,11.80
2022-10-17T17:09:09.799Z,11.20
2022-10-17T17:11:18.439Z,11.40
2022-10-17T17:13:24.909Z,11.80
2022-10-17T17:15:31.074Z,11.50
2022-10-17T17:17:54.712Z,11.00
2022-10-17T17:20:02.326Z,11.00
2022-10-17T17:22:11.306Z,11.10
2022-10-17T17:24:17.464Z,10.20
2022-10-17T17:26:25.345Z,9.70
2022-10-17T17:28:32.564Z,11.50
2022-10-17T17:30:39.419Z,11.50
2022-10-17T17:32:44.618Z,12.50
2022-10-17T17:34:49.426Z,11.50
2022-10-17T17:36:55.057Z,11.70
2022-10-17T17:39:01.943Z,11.40
2022-10-17T17:41:11.240Z,9.90
2022-10-17T17:43:16.509Z,10.60
2022-10-17T17:45:23.260Z,12.20
2022-10-17T17:47:30.386Z,13.00
2022-10-17T17:49:36.293Z,10.60
2022-10-17T17:51:43.549Z,11.80
2022-10-17T17:53:50.085Z,11.80
2022-10-17T17:56:05.922Z,12.80
2022-10-17T17:58:11.683Z,13.10
2022-10-17T18:00:17.463Z,11.50
2022-10-17T18:02:23.564Z,10.80
2022-10-17T18:04:29.461Z,12.40
2022-10-17T18:06:35.058Z,12.60
2022-10-17T18:08:40.633Z,10.70
2022-10-17T18:10:50.696Z,14.90
2022-10-17T18:12:56.248Z,11.60
2022-10-17T18:15:03.599Z,12.40
2022-10-17T18:17:12.512Z,13.70
2022-10-17T18:19:19.831Z,11.60
2022-10-17T18:21:25.728Z,13.20
2022-10-17T18:23:32.724Z,11.90
2022-10-17T18:25:39.340Z,11.90
2022-10-17T18:27:45.145Z,12.90
2022-10-17T18:29:51.956Z,13.80
2022-10-17T18:32:01.756Z,13.40
2022-10-17T18:34:08.718Z,13.20
2022-10-17T18:36:16.268Z,13.40
2022-10-17T18:38:23.279Z,14.00
2022-10-17T18:40:36.283Z,12.60
2022-10-17T18:42:44.214Z,13.60
2022-10-17T18:44:52.746Z,13.80
2022-10-17T18:47:02.897Z,12.50
2022-10-17T18:49:10.875Z,13.10
2022-10-17T18:51:26.361Z,12.60
2022-10-17T18:53:32.988Z,12.30
2022-10-17T18:55:40.712Z,13.10
2022-10-17T18:57:48.064Z,12.80
2022-10-17T18:59:57.770Z,13.00
2022-10-17T19:02:04.043Z,13.50
2022-10-17T19:04:10.123Z,13.30
2022-10-17T19:06:17.820Z,14.00
2022-10-17T19:08:23.011Z,14.30
2022-10-17T19:10:27.665Z,13.30
2022-10-17T19:12:34.430Z,13.90
2022-10-17T19:14:40.585Z,13.80
2022-10-17T19:16:47.411Z,15.10
2022-10-17T19:18:53.826Z,19.80
2022-10-17T19:21:03.469Z,13.20
2022-10-17T19:23:08.174Z,12.10
2022-10-17T19:25:12.986Z,13.20
2022-10-17T19:27:18.369Z,13.20
2022-10-17T19:29:27.929Z,14.10
2022-10-17T19:31:35.313Z,13.40
2022-10-17T19:33:40.169Z,13.40
2022-10-17T19:35:44.976Z,13.50
2022-10-17T19:37:51.041Z,14.70
2022-10-17T19:39:56.107Z,13.70
2022-10-17T19:42:06.737Z,16.30
2022-10-17T19:44:13.567Z,16.20
2022-10-17T19:46:20.363Z,13.80
2022-10-17T19:48:25.726Z,12.70
2022-10-17T19:50:31.987Z,14.60
2022-10-17T19:52:36.996Z,15.30
2022-10-17T19:54:46.247Z,14.70
2022-10-17T19:56:51.908Z,14.10
2022-10-17T19:58:57.070Z,13.40
2022-10-17T20:01:05.752Z,14.30
2022-10-17T20:03:10.585Z,14.60
2022-10-17T20:05:18.886Z,15.70
2022-10-17T20:07:24.029Z,15.00
2022-10-17T20:09:28.830Z,14.30
2022-10-17T20:11:34.639Z,14.50
2022-10-17T20:13:40.867Z,13.20
2022-10-17T20:15:55.438Z,13.50
2022-10-17T20:18:01.179Z,13.20
2022-10-17T20:20:08.828Z,15.90
2022-10-17T20:22:14.154Z,14.90
2022-10-17T20:24:18.956Z,15.80
2022-10-17T20:26:36.566Z,13.30
2022-10-17T20:28:43.110Z,14.10
2022-10-17T20:30:47.974Z,13.60
2022-10-17T20:32:55.103Z,15.40
2022-10-17T20:35:00.416Z,15.40
2022-10-17T20:37:05.392Z,15.50
2022-10-17T20:39:12.432Z,17.00
2022-10-17T20:41:17.105Z,14.50
2022-10-17T20:43:21.790Z,15.40
2022-10-17T20:45:37.639Z,14.40
2022-10-17T20:47:52.846Z,13.90
2022-10-17T20:49:57.739Z,14.60
2022-10-17T20:52:02.849Z,14.70
2022-10-17T20:54:07.490Z,14.00
2022-10-17T20:56:19.809Z,12.80
2022-10-17T20:58:24.462Z,14.40
2022-10-17T21:00:29.197Z,14.50
2022-10-17T21:02:33.926Z,15.10
2022-10-17T21:04:46.350Z,14.00
2022-10-17T21:06:51.707Z,14.20
2022-10-17T21:08:59.208Z,13.80
2022-10-17T21:11:12.450Z,15.60
2022-10-17T21:13:17.170Z,15.20
2022-10-17T21:15:21.807Z,14.30
2022-10-17T21:17:26.605Z,13.20
2022-10-17T21:19:31.256Z,14.80
2022-10-17T21:21:37.851Z,14.10
2022-10-17T21:23:43.550Z,14.10
2022-10-17T21:25:48.221Z,14.30
2022-10-17T21:27:54.639Z,14.70
2022-10-17T21:29:59.327Z,12.10
2022-10-17T21:32:11.371Z,13.70
2022-10-17T21:34:28.816Z,12.60
2022-10-17T21:36:33.616Z,13.90
2022-10-17T21:38:39.530Z,13.20
2022-10-17T21:40:48.774Z,13.50
2022-10-17T21:42:54.156Z,14.10
2022-10-17T21:44:58.748Z,13.60
2022-10-17T21:47:03.430Z,12.70
2022-10-17T21:49:09.606Z,13.50
2022-10-17T21:51:23.209Z,14.50
2022-10-17T21:53:28.058Z,13.20
2022-10-17T21:55:35.534Z,12.90
2022-10-17T21:57:40.169Z,12.80
2022-10-17T21:59:44.761Z,13.50
2022-10-17T22:01:49.517Z,13.90
2022-10-17T22:03:55.699Z,12.20
2022-10-17T22:06:12.971Z,12.20
2022-10-17T22:08:25.064Z,12.40
2022-10-17T22:10:29.748Z,13.90
2022-10-17T22:12:34.439Z,13.60
2022-10-17T22:14:39.114Z,12.50
2022-10-17T22:16:44.521Z,14.90
2022-10-17T22:18:49.483Z,12.30
2022-10-17T22:20:54.103Z,13.20
2022-10-17T22:22:58.775Z,14.60
2022-10-17T22:25:03.585Z,13.30
2022-10-17T22:27:08.242Z,11.30
2022-10-17T22:29:13.649Z,13.30
2022-10-17T22:31:18.460Z,12.50
2022-10-17T22:33:23.206Z,14.40
2022-10-17T22:35:27.908Z,14.40
2022-10-17T22:37:32.810Z,15.80
2022-10-17T22:39:37.818Z,13.30
2022-10-17T22:41:42.549Z,13.30
2022-10-17T22:43:47.340Z,11.30
2022-10-17T22:45:56.576Z,11.80
2022-10-17T22:48:01.208Z,13.40
2022-10-17T22:50:06.613Z,13.20
2022-10-17T22:52:11.251Z,12.20
2022-10-17T22:54:16.199Z,12.50
2022-10-17T22:56:22.112Z,12.20
2022-10-17T22:58:28.612Z,12.10
2022-10-17T23:00:33.228Z,13.10
2022-10-17T23:02:38.361Z,11.90
2022-10-17T23:04:43.015Z,13.10
2022-10-17T23:06:47.654Z,12.00
2022-10-17T23:08:52.306Z,13.10
2022-10-17T23:10:57.301Z,12.90
2022-10-17T23:13:02.309Z,12.00
2022-10-17T23:15:08.683Z,12.90
2022-10-17T23:17:13.893Z,12.00
2022-10-17T23:19:18.810Z,13.10
2022-10-17T23:21:23.514Z,11.90
2022-10-17T23:23:28.189Z,11.10
2022-10-17T23:25:34.430Z,12.20
2022-10-17T23:27:39.004Z,13.50
2022-10-17T23:29:44.810Z,13.00
2022-10-17T23:31:49.501Z,13.60
2022-10-17T23:33:54.113Z,13.90
2022-10-17T23:35:58.826Z,12.60
2022-10-17T23:38:03.485Z,11.80
2022-10-17T23:40:09.949Z,12.80
2022-10-17T23:42:14.555Z,12.00
2022-10-17T23:44:20.693Z,11.60
2022-10-17T23:46:25.483Z,11.80
2022-10-17T23:48:30.486Z,10.50
2022-10-17T23:50:35.375Z,13.80
2022-10-17T23:52:40.047Z,11.30
2022-10-17T23:54:44.739Z,12.30
2022-10-17T23:56:49.367Z,11.50
2022-10-17T23:58:54.093Z,11.10
